EDT,Max TemperatureF,Mean TemperatureF,Min TemperatureF,Max Dew PointF,MeanDew PointF,Min DewpointF,Max Humidity, Mean Humidity, Min Humidity, Max Sea Level PressureIn, Mean Sea Level PressureIn, Min Sea Level PressureIn, Max VisibilityMiles, Mean VisibilityMiles, Min VisibilityMiles, Max Wind SpeedMPH, Mean Wind SpeedMPH, Max Gust SpeedMPH,PrecipitationIn, CloudCover, Events, WindDirDegrees
2010-10-1,74,59,43,44,39,35,89,57,25,30.12,30.05,29.99,10,10,10,17,6,23,0.00,0,,15
2010-10-2,60,51,42,52,46,39,96,77,57,30.16,30.05,29.98,10,9,2,18,6,24,0.18,5,Rain,345
2010-10-3,59,47,34,43,38,33,93,67,40,30.30,30.24,30.16,10,10,10,20,9,26,0.00,4,,5
2010-10-4,64,50,35,39,36,33,92,66,39,30.37,30.32,30.30,10,10,10,16,4,21,0.00,2,,9
2010-10-5,67,49,31,40,34,30,96,61,26,30.40,30.33,30.27,10,10,5,12,3,17,0.00,0,,354
2010-10-6,74,56,37,43,37,33,85,55,25,30.26,30.15,30.01,10,10,10,15,5,23,0.00,0,,279
2010-10-7,80,63,45,51,46,43,93,61,28,30.11,30.06,29.99,10,10,8,10,3,15,0.00,0,,305
2010-10-8,82,61,39,46,37,28,93,55,16,30.15,30.10,30.06,10,10,10,10,2,16,0.00,0,,260
2010-10-9,85,64,42,47,41,36,89,54,18,30.10,30.05,30.00,10,10,10,10,2,15,0.00,0,,260
2010-10-10,87,68,49,52,48,45,93,61,28,30.02,29.96,29.88,10,10,10,12,2,16,0.00,0,,268
2010-10-11,85,68,50,52,48,43,89,57,24,29.90,29.86,29.81,10,10,10,17,4,23,0.00,0,,258
2010-10-12,75,62,49,55,51,47,89,68,46,29.95,29.90,29.84,10,10,10,10,1,14,0.00,1,,259
2010-10-13,80,65,50,57,53,45,100,70,40,30.08,29.99,29.94,10,8,2,20,4,28,0.08,3,Rain-Thunderstorm,300
2010-10-14,67,55,43,45,36,25,100,61,22,30.14,30.05,29.89,10,10,6,14,5,22,0.00,1,,282
2010-10-15,67,53,39,41,37,32,83,60,37,30.14,29.97,29.78,10,10,10,17,7,25,0.00,1,,306
2010-10-16,70,51,32,43,36,31,100,64,28,30.21,30.14,30.06,10,8,2,14,4,18,0.00,0,,231
2010-10-17,77,63,48,46,41,36,77,55,33,30.07,30.03,29.97,10,10,10,12,4,15,0.00,0,,240
2010-10-18,74,60,46,46,40,34,74,53,31,30.01,29.95,29.87,10,10,10,16,5,21,0.04,2,Rain-Thunderstorm,42
2010-10-19,66,50,34,46,38,30,100,64,28,30.04,29.99,29.95,10,6,0,9,2,14,0.02,2,Fog-Rain,20
2010-10-20,70,51,32,37,33,30,92,58,23,29.97,29.90,29.81,10,10,10,20,7,29,0.00,0,,237
2010-10-21,62,47,32,39,31,24,70,48,25,30.07,29.92,29.79,10,10,10,17,6,23,0.00,0,,299
2010-10-22,69,48,27,35,27,23,85,51,17,30.22,30.15,30.08,10,10,10,12,3,16,0.00,0,,175
2010-10-23,76,62,47,36,33,30,50,35,20,30.13,30.08,30.01,10,10,10,14,7,20,0.00,0,,161
2010-10-24,76,68,59,58,49,36,78,54,30,30.01,29.89,29.75,10,10,10,24,12,32,T,4,Rain,182
2010-10-25,76,69,61,59,57,56,84,71,57,29.73,29.65,29.54,10,10,10,18,11,24,0.00,6,,187
2010-10-26,75,63,51,64,57,45,96,72,48,29.71,29.45,29.26,10,9,0,31,14,43,0.44,6,Fog-Rain,209
2010-10-27,74,61,47,49,38,25,93,58,22,29.92,29.79,29.72,10,10,8,30,12,38,0.00,0,,218
2010-10-28,58,50,42,33,30,25,65,47,28,30.33,30.16,29.93,10,10,10,18,10,25,0.00,5,,290
2010-10-29,55,42,28,30,27,23,85,57,29,30.39,30.31,30.22,10,10,8,12,3,15,0.00,1,,306
2010-10-30,66,46,26,29,25,22,85,52,19,30.21,30.01,29.86,10,10,10,23,9,29,0.00,0,,224
2010-10-31,58,47,35,37,29,23,76,52,28,30.25,30.08,29.91,10,10,10,16,7,22,0.00,0,,40